Time;durP1;ratioP1;P1;durP2;ratioP2;P2;SDS_P1;SDS_P2;PMS_P1;PMS_P2;Temp;Humidity;BMP_temperature;BMP_pressure;BME280_temperature;BME280_humidity;BME280_pressure;Samples;Min_cycle;Max_cycle;Signal;HPM_P1;HPM_P2
2022/05/16 00:02:19;;;;;;;2.20;0.70;;;;;;;10.42;60.10;96885.88;1743435;80;21103;-86
2022/05/16 00:04:46;;;;;;;1.87;0.80;;;;;;;10.43;60.02;96886.69;1742129;80;21174;-86
2022/05/16 00:07:12;;;;;;;2.33;0.80;;;;;;;10.46;59.94;96885.05;1759864;80;21011;-86
2022/05/16 00:09:38;;;;;;;5.15;0.85;;;;;;;10.48;59.77;96885.68;1772615;80;21109;-86
2022/05/16 00:12:04;;;;;;;2.20;0.80;;;;;;;10.50;59.70;96883.72;1772725;80;21480;-86
2022/05/16 00:14:30;;;;;;;2.45;1.00;;;;;;;10.51;59.76;96881.44;1764181;80;21022;-85
2022/05/16 00:16:56;;;;;;;1.42;0.72;;;;;;;10.50;59.81;96881.93;1753436;80;21479;-86
2022/05/16 00:19:22;;;;;;;1.62;0.78;;;;;;;10.50;59.85;96880.63;1769489;80;21098;-86
2022/05/16 00:21:47;;;;;;;1.32;0.72;;;;;;;10.51;59.95;96882.73;1761575;79;21115;-85
2022/05/16 00:24:15;;;;;;;1.80;0.70;;;;;;;10.48;59.79;96878.70;1759765;80;21053;-85
2022/05/16 00:26:41;;;;;;;2.37;1.45;;;;;;;10.46;60.10;96877.25;1762552;80;21043;-85
2022/05/16 00:29:06;;;;;;;2.90;0.80;;;;;;;10.44;60.51;96877.42;1769021;79;21074;-85
2022/05/16 00:31:32;;;;;;;2.05;0.78;;;;;;;10.42;60.82;96876.78;1758505;80;21086;-85
2022/05/16 00:33:59;;;;;;;2.15;0.70;;;;;;;10.41;60.71;96870.42;1750735;80;21043;-85
2022/05/16 00:36:25;;;;;;;2.08;0.70;;;;;;;10.39;60.61;96881.48;1782413;80;20988;-86
2022/05/16 00:38:53;;;;;;;1.75;0.80;;;;;;;10.35;60.64;96877.61;1760993;80;21374;-85
2022/05/16 00:41:18;;;;;;;1.77;0.65;;;;;;;10.32;60.89;96881.84;1774231;80;21022;-85
2022/05/16 00:43:57;;;;;;;1.35;0.70;;;;;;;10.29;61.18;96876.50;1774809;80;21010;-85
2022/05/16 00:46:26;;;;;;;2.15;0.70;;;;;;;10.28;61.33;96879.27;1767149;80;21369;-86
2022/05/16 00:48:54;;;;;;;1.50;0.70;;;;;;;10.26;61.78;96886.42;1769231;80;21162;-85
2022/05/16 00:51:28;;;;;;;2.27;0.72;;;;;;;10.23;61.75;96884.45;1782871;80;21461;-85
2022/05/16 00:53:57;;;;;;;0.93;0.60;;;;;;;10.25;62.18;96894.70;1764332;80;21009;-85
2022/05/16 00:56:24;;;;;;;1.42;0.80;;;;;;;10.27;62.34;96891.94;1771497;79;20973;-85
2022/05/16 00:58:50;;;;;;;1.12;0.80;;;;;;;10.29;62.03;96896.47;1789759;80;20981;-85
2022/05/16 01:06:44;;;;;;;2.02;0.90;;;;;;;10.25;61.32;96893.41;1771637;80;21027;-85
2022/05/16 01:09:10;;;;;;;1.45;0.80;;;;;;;10.21;61.55;96892.90;1781845;80;21121;-84
2022/05/16 01:11:36;;;;;;;1.25;0.68;;;;;;;10.19;61.31;96903.92;1778786;80;21009;-85
2022/05/16 01:14:03;;;;;;;1.75;0.90;;;;;;;10.16;61.47;96899.55;1776430;80;21060;-85
2022/05/16 01:16:29;;;;;;;2.75;0.78;;;;;;;10.14;61.15;96893.72;1770728;80;21056;-85
2022/05/16 01:18:55;;;;;;;1.42;0.78;;;;;;;10.11;61.45;96900.05;1778965;79;21435;-85
2022/05/16 01:21:35;;;;;;;2.17;0.60;;;;;;;10.09;61.64;96893.41;1771102;80;21038;-84
2022/05/16 01:24:15;;;;;;;1.62;0.80;;;;;;;10.07;61.87;96899.23;1765845;80;21021;-85
2022/05/16 01:26:41;;;;;;;2.92;0.80;;;;;;;10.03;61.71;96900.55;1764123;80;21052;-85
2022/05/16 01:29:07;;;;;;;1.45;0.98;;;;;;;10.00;61.96;96888.71;1762081;80;21359;-85
2022/05/16 01:31:33;;;;;;;1.20;0.88;;;;;;;9.97;62.03;96883.86;1775346;80;21091;-85
2022/05/16 01:33:59;;;;;;;1.40;1.00;;;;;;;9.95;61.74;96888.41;1774168;80;21036;-85
2022/05/16 01:36:25;;;;;;;1.52;0.80;;;;;;;9.92;62.01;96884.36;1777586;80;20941;-85
2022/05/16 01:38:52;;;;;;;1.90;1.20;;;;;;;9.89;62.15;96876.06;1767378;80;21057;-85
2022/05/16 01:41:21;;;;;;;1.27;0.72;;;;;;;9.90;62.38;96871.20;1777983;80;21431;-85
2022/05/16 01:43:51;;;;;;;1.82;0.70;;;;;;;9.91;62.23;96876.70;1772981;80;21372;-85
2022/05/16 01:46:21;;;;;;;1.50;0.90;;;;;;;9.92;62.26;96873.14;1774407;80;21040;-85
2022/05/16 01:48:46;;;;;;;1.92;1.10;;;;;;;9.93;62.37;96879.98;1770965;80;21076;-85
2022/05/16 01:51:12;;;;;;;1.55;0.80;;;;;;;9.93;61.98;96876.08;1778275;80;21089;-85
2022/05/16 01:53:39;;;;;;;1.87;1.10;;;;;;;9.92;62.11;96867.48;1759660;80;21069;-85
2022/05/16 01:56:05;;;;;;;2.52;0.80;;;;;;;9.91;62.45;96868.92;1772347;80;21104;-84
2022/05/16 01:58:31;;;;;;;1.95;1.00;;;;;;;9.89;62.26;96872.98;1778323;80;21456;-85
2022/05/16 02:00:56;;;;;;;3.27;1.00;;;;;;;9.86;62.67;96866.83;1761033;80;21071;-85
2022/05/16 02:03:22;;;;;;;2.35;1.00;;;;;;;9.83;62.47;96868.95;1773331;80;21056;-85
2022/05/16 02:05:48;;;;;;;3.05;1.27;;;;;;;9.81;62.54;96870.91;1752242;80;21121;-84
2022/05/16 02:08:15;;;;;;;2.47;1.00;;;;;;;9.80;62.59;96878.38;1780039;80;21092;-84
2022/05/16 02:10:41;;;;;;;1.62;0.90;;;;;;;9.77;62.65;96882.11;1763859;80;21094;-85
2022/05/16 02:13:06;;;;;;;2.70;0.95;;;;;;;9.74;62.76;96874.63;1746761;80;21077;-85
2022/05/16 02:15:34;;;;;;;2.80;1.25;;;;;;;9.73;62.85;96878.69;1759886;80;21063;-85
2022/05/16 02:18:00;;;;;;;3.52;0.88;;;;;;;9.74;62.63;96884.20;1771905;80;21017;-85
2022/05/16 02:20:27;;;;;;;2.50;1.00;;;;;;;9.77;63.00;96880.00;1757923;80;21445;-84
2022/05/16 02:25:42;;;;;;;1.42;0.93;;;;;;;9.79;62.98;96884.05;1771386;80;21367;-85
2022/05/16 02:28:09;;;;;;;5.85;0.85;;;;;;;9.79;63.18;96885.84;1769729;80;21004;-85
2022/05/16 02:30:36;;;;;;;1.65;0.80;;;;;;;9.77;63.29;96891.20;1779558;80;21031;-85
2022/05/16 02:33:02;;;;;;;2.70;0.93;;;;;;;9.76;63.18;96886.14;1764335;80;21046;-85
2022/05/16 02:35:30;;;;;;;3.85;1.20;;;;;;;9.73;63.31;96890.36;1764112;80;21024;-85
2022/05/16 02:37:59;;;;;;;0.88;0.72;;;;;;;9.71;63.18;96890.53;1779515;79;21088;-84
2022/05/16 02:40:29;;;;;;;2.60;1.05;;;;;;;9.70;63.21;96898.48;1725594;79;20957;-84
2022/05/16 02:42:55;;;;;;;3.10;1.20;;;;;;;9.67;63.15;96894.92;1749356;80;21047;-85
2022/05/16 02:45:21;;;;;;;3.25;1.17;;;;;;;9.64;63.40;96899.95;1746155;80;21465;-85
2022/05/16 02:47:47;;;;;;;2.72;0.88;;;;;;;9.62;63.44;96898.02;1745096;80;21311;-85
2022/05/16 02:50:13;;;;;;;2.65;1.12;;;;;;;9.61;63.68;96897.20;1794061;79;21056;-85
2022/05/16 02:52:39;;;;;;;1.87;1.00;;;;;;;9.62;63.54;96891.04;1761484;79;20993;-85
2022/05/16 02:55:05;;;;;;;1.00;0.80;;;;;;;9.63;63.74;96895.25;1758977;80;21002;-85
2022/05/16 02:57:31;;;;;;;3.80;0.70;;;;;;;9.65;63.78;96895.58;1749052;80;21488;-85
2022/05/16 02:59:57;;;;;;;2.30;0.88;;;;;;;9.63;64.09;96900.44;1770299;80;21013;-85
2022/05/16 03:02:23;;;;;;;1.75;1.12;;;;;;;9.63;64.29;96900.93;1764332;80;21025;-85
2022/05/16 03:04:49;;;;;;;1.22;0.90;;;;;;;9.61;64.23;96896.39;1734584;82;21106;-85
2022/05/16 03:07:14;;;;;;;2.22;1.00;;;;;;;9.58;64.22;96902.69;1753879;80;21100;-85
2022/05/16 03:09:40;;;;;;;1.85;1.00;;;;;;;9.58;64.37;96905.77;1777590;80;21128;-85
2022/05/16 03:12:07;;;;;;;1.30;0.90;;;;;;;9.56;64.46;96902.05;1787492;78;21038;-84
2022/05/16 03:14:35;;;;;;;4.08;1.37;;;;;;;9.54;64.62;96905.30;1763975;80;21079;-85
2022/05/16 03:17:02;;;;;;;2.40;1.15;;;;;;;9.53;64.74;96908.86;1781569;80;21076;-85
2022/05/16 03:19:27;;;;;;;2.17;1.00;;;;;;;9.54;64.77;96914.37;1763823;80;21050;-84
2022/05/16 03:21:53;;;;;;;1.32;0.93;;;;;;;9.58;64.77;96910.96;1745534;81;22252;-85
2022/05/16 03:24:19;;;;;;;2.58;1.05;;;;;;;9.60;64.88;96912.94;1742984;81;21050;-85
2022/05/16 03:26:45;;;;;;;1.50;1.20;;;;;;;9.60;64.86;96905.96;1737982;82;21102;-85
2022/05/16 03:29:11;;;;;;;2.65;1.12;;;;;;;9.61;64.92;96898.98;1746478;82;21132;-85
2022/05/16 03:31:39;;;;;;;3.17;1.00;;;;;;;9.62;65.16;96899.31;1775977;80;21031;-85
2022/05/16 03:34:07;;;;;;;1.40;1.10;;;;;;;9.62;65.23;96894.93;1780779;80;20984;-85
2022/05/16 03:36:34;;;;;;;3.02;1.05;;;;;;;9.63;65.09;96899.63;1774436;79;21433;-85
2022/05/16 03:41:45;;;;;;;3.15;1.00;;;;;;;9.62;65.65;96891.04;1767941;80;21016;-83
2022/05/16 03:44:11;;;;;;;2.87;1.10;;;;;;;9.61;65.71;96897.20;1768483;79;20960;-85
2022/05/16 03:46:37;;;;;;;2.58;0.95;;;;;;;9.63;65.63;96892.66;1775054;80;20983;-85
2022/05/16 03:49:05;;;;;;;1.85;1.00;;;;;;;9.66;65.60;96891.52;1754314;80;21023;-85
2022/05/16 03:51:30;;;;;;;3.27;1.00;;;;;;;9.69;65.68;96893.78;1746730;82;20983;-85
2022/05/16 03:53:56;;;;;;;2.25;1.05;;;;;;;9.73;65.79;96899.45;1765363;80;21110;-85
2022/05/16 03:56:25;;;;;;;1.55;0.90;;;;;;;9.73;65.52;96892.96;1755008;80;21001;-84
2022/05/16 03:58:51;;;;;;;1.72;1.00;;;;;;;9.74;65.36;96895.88;1770931;80;20991;-85
2022/05/16 04:01:17;;;;;;;2.62;0.95;;;;;;;9.74;65.43;96894.09;1755044;80;20991;-85
2022/05/16 04:03:43;;;;;;;2.77;1.00;;;;;;;9.74;65.76;96896.69;1755862;80;21058;-85
2022/05/16 04:06:09;;;;;;;4.30;0.90;;;;;;;9.75;66.02;96893.60;1770064;79;21393;-85
2022/05/16 04:08:35;;;;;;;1.05;0.80;;;;;;;9.75;65.87;96897.50;1767385;80;21075;-85
2022/05/16 04:11:01;;;;;;;2.17;0.98;;;;;;;9.75;66.29;96896.20;1705622;82;21039;-85
2022/05/16 04:13:27;;;;;;;3.15;1.30;;;;;;;9.78;66.07;96893.30;1742037;81;21042;-85
2022/05/16 04:15:53;;;;;;;1.95;0.75;;;;;;;9.81;66.18;96892.48;1748414;81;21067;-85
2022/05/16 04:18:19;;;;;;;1.85;1.00;;;;;;;9.85;66.18;96898.14;1740055;81;20972;-85
2022/05/16 04:20:45;;;;;;;2.27;1.50;;;;;;;9.88;66.32;96897.81;1745529;81;21327;-85
2022/05/16 04:23:11;;;;;;;2.55;1.02;;;;;;;9.90;65.96;96901.05;1760612;80;21408;-85
2022/05/16 04:25:38;;;;;;;2.67;1.00;;;;;;;9.91;66.01;96901.38;1774386;80;20978;-85
2022/05/16 04:28:07;;;;;;;2.02;0.80;;;;;;;9.90;65.99;96899.27;1759315;80;21475;-85
2022/05/16 04:30:33;;;;;;;2.02;0.90;;;;;;;9.91;66.10;96907.86;1732137;80;21063;-85
2022/05/16 04:32:59;;;;;;;3.12;1.10;;;;;;;9.90;66.39;96905.75;1763226;80;21122;-85
2022/05/16 04:35:25;;;;;;;1.95;0.88;;;;;;;9.93;66.48;96909.83;1752000;79;21121;-85
2022/05/16 04:37:51;;;;;;;4.20;1.05;;;;;;;9.96;66.60;96901.70;1767805;80;21035;-85
2022/05/16 04:40:17;;;;;;;2.02;0.90;;;;;;;10.01;66.75;96902.02;1774429;80;21024;-85
2022/05/16 04:42:46;;;;;;;2.20;1.20;;;;;;;10.07;66.82;96896.15;1755772;80;21334;-85
2022/05/16 04:45:28;;;;;;;3.02;1.00;;;;;;;10.12;67.28;96895.67;1746722;80;20998;-85
2022/05/16 04:47:57;;;;;;;2.83;1.32;;;;;;;10.14;67.50;96898.42;1736935;82;21128;-85
2022/05/16 04:50:33;;;;;;;1.30;0.90;;;;;;;10.18;67.44;96897.11;1748686;81;20965;-85
2022/05/16 04:52:59;;;;;;;1.20;0.78;;;;;;;10.18;67.55;96893.21;1766724;80;20992;-85
2022/05/16 04:55:26;;;;;;;3.10;1.10;;;;;;;10.19;67.63;96893.53;1759750;80;21009;-85
2022/05/16 04:57:51;;;;;;;1.22;0.90;;;;;;;10.23;67.58;96891.44;1759615;80;20995;-86
2022/05/16 05:00:18;;;;;;;2.05;1.00;;;;;;;10.29;67.61;96897.28;1772443;80;21075;-87
2022/05/16 05:02:44;;;;;;;2.65;1.10;;;;;;;10.36;67.93;96899.52;1764481;80;20980;-86
2022/05/16 05:05:10;;;;;;;3.83;1.00;;;;;;;10.44;67.94;96904.70;1762194;80;21364;-87
2022/05/16 05:07:36;;;;;;;2.80;0.98;;;;;;;10.49;68.15;96912.79;1776004;79;21024;-87
2022/05/16 05:15:38;;;;;;;3.25;1.42;;;;;;;10.63;68.92;96919.56;1770327;80;21365;-87
2022/05/16 05:18:04;;;;;;;2.08;0.93;;;;;;;10.68;69.01;96922.46;1767344;80;21056;-86
2022/05/16 05:20:32;;;;;;;2.72;1.02;;;;;;;10.75;69.11;96906.53;1780596;80;21118;-86
2022/05/16 05:22:58;;;;;;;2.35;1.05;;;;;;;10.81;69.21;96912.34;1765472;80;21399;-87
2022/05/16 05:25:23;;;;;;;2.42;1.32;;;;;;;10.88;69.15;96915.05;1759902;80;20993;-87
2022/05/16 05:27:51;;;;;;;1.70;1.00;;;;;;;10.94;69.24;96915.20;1777560;80;21093;-86
2022/05/16 05:30:24;;;;;;;3.45;1.02;;;;;;;10.99;69.38;96922.48;1765604;80;21105;-86
2022/05/16 05:32:50;;;;;;;2.95;1.07;;;;;;;11.03;69.49;96915.45;1749558;80;21066;-87
2022/05/16 05:35:16;;;;;;;2.92;0.90;;;;;;;11.09;69.36;96920.48;1759550;80;21039;-86
2022/05/16 05:37:42;;;;;;;2.22;1.00;;;;;;;11.16;69.71;96918.80;1781994;80;21481;-86
2022/05/16 05:40:09;;;;;;;2.67;1.07;;;;;;;11.24;69.25;96915.36;1785003;80;21020;-86
2022/05/16 05:42:35;;;;;;;1.92;0.98;;;;;;;11.31;69.12;96918.38;1785207;79;21066;-86
2022/05/16 05:45:01;;;;;;;2.55;0.98;;;;;;;11.39;69.03;96920.13;1756542;80;21024;-86
2022/05/16 05:47:27;;;;;;;2.47;1.12;;;;;;;11.45;69.43;96918.62;1769750;80;21012;-86
2022/05/16 05:49:53;;;;;;;2.55;1.10;;;;;;;11.50;69.49;96917.59;1775257;80;20993;-86
2022/05/16 05:52:19;;;;;;;2.27;1.40;;;;;;;11.55;69.84;96920.02;1755094;80;20996;-86
2022/05/16 05:54:45;;;;;;;1.50;1.02;;;;;;;11.60;69.98;96922.89;1768465;79;20991;-86
2022/05/16 05:57:11;;;;;;;2.72;1.30;;;;;;;11.69;69.91;96925.73;1787814;80;20989;-86
2022/05/16 05:59:37;;;;;;;3.22;1.30;;;;;;;11.78;70.08;96921.28;1772509;80;20968;-86
2022/05/16 06:02:05;;;;;;;3.37;1.22;;;;;;;11.87;70.32;96915.03;1768105;80;20952;-87
2022/05/16 06:04:31;;;;;;;2.33;1.40;;;;;;;11.95;69.99;96908.47;1770183;80;21535;-87
2022/05/16 06:06:57;;;;;;;1.92;1.30;;;;;;;12.04;70.13;96913.12;1753412;80;21063;-86
2022/05/16 06:09:23;;;;;;;2.95;1.37;;;;;;;12.11;70.33;96914.50;1784705;79;21128;-87
2022/05/16 06:11:49;;;;;;;2.58;1.32;;;;;;;12.18;70.27;96920.61;1740948;82;21448;-86
2022/05/16 06:14:16;;;;;;;3.33;1.35;;;;;;;12.25;70.13;96917.62;1733544;82;21134;-86
2022/05/16 06:16:42;;;;;;;3.52;2.50;;;;;;;12.33;70.69;96922.73;1734245;80;21392;-87
2022/05/16 06:19:11;;;;;;;3.10;1.62;;;;;;;12.43;70.17;96910.75;1756931;80;21047;-86
2022/05/16 06:21:37;;;;;;;3.95;1.82;;;;;;;12.55;70.16;96913.23;1760616;80;21017;-87
2022/05/16 06:24:04;;;;;;;4.15;2.33;;;;;;;12.65;70.40;96912.44;1777787;80;21093;-85
2022/05/16 06:26:30;;;;;;;6.53;3.47;;;;;;;12.78;70.19;96907.89;1778609;80;21497;-84
2022/05/16 06:28:56;;;;;;;3.95;2.25;;;;;;;12.94;69.31;96911.59;1768798;80;20927;-85
2022/05/16 06:31:23;;;;;;;3.98;2.45;;;;;;;13.08;70.01;96910.75;1766223;80;21434;-85
2022/05/16 06:33:49;;;;;;;4.45;2.40;;;;;;;13.19;69.34;96906.89;1767037;80;22289;-84
2022/05/16 06:36:15;;;;;;;3.42;2.60;;;;;;;13.31;69.36;96909.30;1779770;80;20992;-84
2022/05/16 06:38:41;;;;;;;6.58;2.85;;;;;;;13.43;69.08;96919.56;1780905;80;21023;-84
2022/05/16 06:41:07;;;;;;;14.70;6.72;;;;;;;13.51;68.74;96912.93;1775781;80;21045;-85
2022/05/16 06:43:34;;;;;;;7.80;4.65;;;;;;;13.64;67.96;96912.22;1699347;83;21028;-84
2022/05/16 06:46:01;;;;;;;10.28;3.77;;;;;;;13.79;67.00;96912.14;1759078;80;21033;-84
2022/05/16 06:48:29;;;;;;;6.45;3.85;;;;;;;13.93;66.55;96904.72;1769339;80;21083;-85
2022/05/16 06:50:55;;;;;;;17.45;5.85;;;;;;;14.07;65.99;96906.44;1771183;80;21078;-85
2022/05/16 06:53:24;;;;;;;17.27;6.90;;;;;;;14.24;65.56;96912.67;1778632;80;21451;-85
2022/05/16 06:55:50;;;;;;;12.30;5.42;;;;;;;14.38;65.62;96913.06;1778477;80;21044;-85
2022/05/16 06:58:16;;;;;;;8.93;3.62;;;;;;;14.52;66.08;96913.48;1744872;80;21408;-85
2022/05/16 07:00:41;;;;;;;11.20;4.42;;;;;;;14.59;64.23;96917.43;1777719;78;21084;-85
2022/05/16 07:03:07;;;;;;;11.60;4.20;;;;;;;14.69;63.98;96922.63;1773550;80;21034;-85
2022/05/16 07:05:34;;;;;;;12.80;5.92;;;;;;;14.83;63.51;96929.23;1765991;80;21025;-85
2022/05/16 07:08:00;;;;;;;14.53;6.15;;;;;;;14.92;63.29;96927.54;1780345;80;21018;-85
2022/05/16 07:10:26;;;;;;;11.25;5.28;;;;;;;15.01;62.27;96932.92;1780424;80;20988;-85
2022/05/16 07:12:52;;;;;;;10.58;4.87;;;;;;;15.13;61.74;96935.79;1761124;80;21014;-85
2022/05/16 07:15:19;;;;;;;9.03;4.42;;;;;;;15.20;60.65;96929.25;1763811;80;21395;-85
2022/05/16 07:17:45;;;;;;;8.40;3.85;;;;;;;15.25;60.45;96929.45;1773496;80;21006;-84
2022/05/16 07:20:11;;;;;;;6.08;2.65;;;;;;;15.33;61.71;96933.22;1745741;80;20995;-85
2022/05/16 07:22:42;;;;;;;6.53;3.30;;;;;;;15.41;60.26;96934.83;1754376;80;21051;-84
2022/05/16 07:25:09;;;;;;;5.03;2.50;;;;;;;15.47;60.02;96934.06;1778341;80;21076;-84
2022/05/16 07:30:19;;;;;;;5.42;3.27;;;;;;;15.60;58.80;96936.20;1763517;80;20990;-85
2022/05/16 07:32:45;;;;;;;7.35;2.90;;;;;;;15.68;59.22;96935.72;1777686;80;21003;-84
2022/05/16 07:35:17;;;;;;;5.47;2.37;;;;;;;15.74;58.03;96934.41;1761336;79;21026;-85
2022/05/16 07:37:44;;;;;;;;;;;;;;;15.81;58.82;96937.05;1774591;79;20972;-85
2022/05/16 07:40:10;;;;;;;3.60;2.27;;;;;;;15.86;57.58;96935.94;1761898;80;20129;-85
2022/05/16 07:42:36;;;;;;;7.25;2.20;;;;;;;15.92;58.50;96942.98;1764030;80;21005;-85
2022/05/16 07:45:03;;;;;;;4.75;2.27;;;;;;;15.97;56.49;96939.27;1773435;80;20975;-85
2022/05/16 07:47:32;;;;;;;5.55;2.45;;;;;;;16.06;56.49;96947.22;1760481;80;20959;-85
2022/05/16 07:50:00;;;;;;;5.33;2.00;;;;;;;16.14;54.81;96940.98;1758359;80;20979;-84
2022/05/16 07:52:28;;;;;;;5.60;2.50;;;;;;;16.21;56.23;96944.39;1760355;80;21342;-85
2022/05/16 07:54:54;;;;;;;5.10;2.33;;;;;;;16.27;55.57;96933.58;1760093;79;20993;-85
2022/05/16 07:57:20;;;;;;;5.20;2.17;;;;;;;16.33;55.12;96931.47;1787416;79;21084;-85
2022/05/16 07:59:46;;;;;;;7.83;2.98;;;;;;;16.44;55.58;96932.17;1778739;79;21401;-85
2022/05/16 08:02:13;;;;;;;6.12;2.83;;;;;;;16.54;56.51;96933.84;1755572;80;21324;-85
2022/05/16 08:04:39;;;;;;;5.60;2.72;;;;;;;16.63;54.41;96926.06;1784381;79;21095;-85
2022/05/16 08:07:06;;;;;;;4.55;2.70;;;;;;;16.70;53.14;96924.25;1769646;80;21095;-85
2022/05/16 08:12:06;;;;;;;6.17;2.12;;;;;;;16.95;52.29;96932.75;1732540;80;21030;-85
2022/05/16 08:14:31;;;;;;;4.62;2.02;;;;;;;17.07;52.14;96931.88;1736532;79;21061;-85
2022/05/16 08:16:57;;;;;;;4.75;2.08;;;;;;;17.18;50.97;96928.30;1760969;80;21017;-85
2022/05/16 08:19:23;;;;;;;2.60;1.50;;;;;;;17.28;51.53;96921.59;1756916;80;21137;-85
2022/05/16 08:21:49;;;;;;;3.33;1.90;;;;;;;17.45;51.47;96927.66;1765817;80;21005;-85
2022/05/16 08:24:15;;;;;;;3.95;1.90;;;;;;;17.59;52.71;96928.67;1773929;80;21063;-85
2022/05/16 08:26:41;;;;;;;4.17;1.32;;;;;;;17.71;50.26;96924.86;1764654;80;21002;-85
2022/05/16 08:29:08;;;;;;;4.33;1.70;;;;;;;17.91;50.26;96925.55;1780061;79;21059;-87
2022/05/16 08:31:35;;;;;;;2.25;1.45;;;;;;;18.08;49.12;96926.31;1779365;79;21079;-86
2022/05/16 08:34:01;;;;;;;3.52;1.37;;;;;;;18.22;48.80;96922.05;1780563;80;21086;-85
2022/05/16 08:42:02;;;;;;;3.75;1.32;;;;;;;18.71;47.72;96914.27;1772877;80;21098;-86
2022/05/16 08:44:41;;;;;;;3.50;1.52;;;;;;;18.86;47.89;96914.70;1751031;80;21095;-85
2022/05/16 08:47:41;;;;;;;5.10;1.45;;;;;;;19.00;46.38;96915.34;1753944;80;21078;-85
2022/05/16 08:50:15;;;;;;;4.55;1.32;;;;;;;19.13;46.33;96914.67;1783596;79;20995;-85
2022/05/16 08:52:52;;;;;;;3.12;1.20;;;;;;;19.28;45.99;96912.95;1779368;79;20979;-85
2022/05/16 08:55:29;;;;;;;3.83;1.27;;;;;;;19.36;44.87;96911.34;1751783;80;21103;-85
2022/05/16 08:58:13;;;;;;;4.00;1.25;;;;;;;19.39;45.05;96907.45;1768685;79;21031;-85
2022/05/16 09:00:52;;;;;;;2.60;1.30;;;;;;;19.47;46.42;96911.88;1747780;80;20979;-85
2022/05/16 09:03:31;;;;;;;5.22;1.50;;;;;;;19.56;45.90;96916.87;1771994;79;21068;-87
2022/05/16 09:06:01;;;;;;;4.08;1.40;;;;;;;19.61;44.57;96911.72;1772784;79;20999;-87
2022/05/16 09:08:57;;;;;;;2.65;1.15;;;;;;;19.70;45.12;96907.73;1760752;81;21433;-87
2022/05/16 09:11:31;;;;;;;4.22;1.65;;;;;;;19.74;45.10;96914.95;1756591;80;21122;-86
2022/05/16 09:14:08;;;;;;;3.02;1.30;;;;;;;19.76;44.06;96912.09;1773066;80;21089;-87
2022/05/16 09:16:53;;;;;;;2.50;1.42;;;;;;;19.83;42.04;96911.98;1761309;81;21368;-88
2022/05/16 09:19:37;;;;;;;2.95;1.50;;;;;;;19.77;40.85;96913.70;1781042;80;21053;-87
2022/05/16 09:22:19;;;;;;;3.37;1.42;;;;;;;19.74;41.08;96919.43;1759754;81;21435;-87
2022/05/16 09:25:05;;;;;;;3.17;1.65;;;;;;;19.76;41.48;96916.85;1769229;79;21049;-87
2022/05/16 09:30:23;;;;;;;3.15;1.67;;;;;;;19.87;42.17;96915.27;1776714;80;21007;-88
2022/05/16 09:32:58;;;;;;;3.75;1.25;;;;;;;19.92;41.20;96910.11;1745602;82;21016;-88
2022/05/16 09:35:47;;;;;;;2.10;1.52;;;;;;;19.94;41.54;96911.20;1785640;80;21055;-87
2022/05/16 09:38:13;;;;;;;1.70;0.95;;;;;;;19.96;42.64;96910.45;1730336;79;21342;-87
2022/05/16 09:40:47;;;;;;;4.95;1.52;;;;;;;20.04;40.11;96899.58;1767365;79;21047;-87
2022/05/16 09:43:17;;;;;;;2.52;1.40;;;;;;;20.05;41.86;96896.71;1761128;79;21070;-87
2022/05/16 09:45:44;;;;;;;6.05;1.77;;;;;;;20.13;41.10;96897.39;1769401;80;21079;-88
2022/05/16 09:48:21;;;;;;;3.30;1.70;;;;;;;20.21;40.98;96893.91;1769165;80;21628;-88
2022/05/16 09:51:03;;;;;;;2.47;1.20;;;;;;;20.29;40.72;96894.86;1778515;78;21010;-87
2022/05/16 09:53:38;;;;;;;4.25;1.40;;;;;;;20.33;40.23;96894.67;1779417;79;20972;-87
2022/05/16 09:56:16;;;;;;;3.33;1.65;;;;;;;20.22;38.10;96903.42;1767770;80;21141;-87
2022/05/16 09:59:00;;;;;;;4.92;1.87;;;;;;;20.15;39.65;96894.00;1750022;81;21018;-88
2022/05/16 10:01:44;;;;;;;3.58;1.17;;;;;;;20.22;39.17;96899.47;1739322;80;20998;-87
2022/05/16 10:04:20;;;;;;;2.92;1.20;;;;;;;20.30;40.40;96881.95;1758269;80;20991;-87
2022/05/16 10:07:03;;;;;;;2.00;1.20;;;;;;;20.42;39.21;96891.22;1760364;80;21406;-87
2022/05/16 10:09:38;;;;;;;4.40;1.15;;;;;;;20.35;38.10;96886.04;1784373;79;21012;-87
2022/05/16 10:12:07;;;;;;;2.72;1.32;;;;;;;20.37;38.82;96887.92;1779110;80;21036;-88
2022/05/16 10:14:37;;;;;;;3.33;1.15;;;;;;;20.47;40.18;96887.35;1710208;78;21018;-88
2022/05/16 10:17:04;;;;;;;4.35;1.02;;;;;;;20.56;40.10;96885.17;1776622;79;21002;-88
2022/05/16 10:19:32;;;;;;;4.70;1.30;;;;;;;20.69;39.39;96882.28;1762130;78;20971;-89
2022/05/16 10:22:12;;;;;;;2.55;0.90;;;;;;;20.74;39.31;96888.98;1736538;81;21357;-90
2022/05/16 10:24:44;;;;;;;2.45;1.40;;;;;;;20.84;39.66;96893.16;1737283;80;21003;-88
2022/05/16 10:27:11;;;;;;;2.65;0.98;;;;;;;20.86;38.47;96884.99;1759286;80;21115;-89
2022/05/16 10:29:41;;;;;;;2.42;1.22;;;;;;;20.85;38.00;96892.12;1748666;81;22350;-89
2022/05/16 10:35:12;;;;;;;3.65;1.10;;;;;;;20.91;36.54;96885.88;1765299;80;21013;-89
2022/05/16 10:37:41;;;;;;;2.00;1.00;;;;;;;20.87;37.84;96879.47;1762902;79;21012;-89
2022/05/16 10:40:12;;;;;;;3.15;1.00;;;;;;;20.98;37.97;96879.94;1767766;79;20985;-89
2022/05/16 10:42:43;;;;;;;2.27;1.10;;;;;;;21.07;37.64;96874.29;1776872;79;21039;-89
2022/05/16 10:45:21;;;;;;;1.70;0.90;;;;;;;21.20;38.66;96880.61;1756124;80;21103;-89
2022/05/16 10:48:24;;;;;;;2.27;0.93;;;;;;;21.28;37.64;96877.09;1745413;79;20956;-89
2022/05/16 10:50:55;;;;;;;2.15;0.93;;;;;;;21.33;36.92;96887.48;1754327;80;21075;-89
2022/05/16 10:53:30;;;;;;;2.98;1.32;;;;;;;21.33;37.94;96886.97;1756942;80;21014;-89
2022/05/16 10:56:08;;;;;;;3.40;1.62;;;;;;;21.43;36.72;96881.84;1717793;82;21037;-89
2022/05/16 10:59:03;;;;;;;6.40;2.55;;;;;;;21.50;37.76;96885.67;1742358;80;21054;-89
2022/05/16 11:01:48;;;;;;;10.78;4.40;;;;;;;21.62;38.01;96886.39;1774187;80;20995;-89
2022/05/16 11:04:42;;;;;;;3.55;1.90;;;;;;;21.72;37.46;96886.56;1745849;81;21119;-88
2022/05/16 11:07:16;;;;;;;3.37;1.00;;;;;;;21.79;37.15;96883.75;1775709;80;21029;-88
2022/05/16 11:09:53;;;;;;;5.35;1.12;;;;;;;21.86;37.58;96875.95;1764258;80;21494;-89
2022/05/16 11:12:43;;;;;;;2.58;1.15;;;;;;;21.91;37.90;96877.87;1771463;78;21024;-89
2022/05/16 11:15:34;;;;;;;2.75;1.17;;;;;;;21.99;37.10;96869.53;1777280;78;21064;-88
2022/05/16 11:18:32;;;;;;;2.65;1.27;;;;;;;22.05;36.25;96867.27;1794990;78;21060;-89
2022/05/16 11:21:22;;;;;;;3.05;1.17;;;;;;;22.10;35.67;96855.95;1737375;80;21412;-88
2022/05/16 11:24:19;;;;;;;2.62;1.32;;;;;;;22.02;36.05;96863.75;1786157;79;20986;-88
2022/05/16 11:27:18;;;;;;;2.67;1.10;;;;;;;22.07;34.38;96863.05;1771595;79;21016;-88
2022/05/16 11:29:56;;;;;;;2.45;0.95;;;;;;;21.98;36.35;96869.78;1777079;80;21006;-89
2022/05/16 11:32:33;;;;;;;2.30;1.10;;;;;;;22.04;35.98;96870.92;1781572;80;21051;-89
2022/05/16 11:35:29;;;;;;;4.22;1.07;;;;;;;22.06;34.16;96875.48;1762305;80;22258;-89
2022/05/16 11:38:36;;;;;;;3.92;1.52;;;;;;;22.08;35.06;96868.63;1760262;79;21074;-88
2022/05/16 11:41:27;;;;;;;3.22;1.10;;;;;;;22.21;34.65;96869.61;1768542;80;21081;-87
2022/05/16 11:44:16;;;;;;;2.70;1.32;;;;;;;22.31;35.13;96863.14;1779500;80;21147;-88
2022/05/16 11:46:59;;;;;;;3.47;1.32;;;;;;;22.38;34.74;96865.60;1763165;80;20968;-87
2022/05/16 11:49:57;;;;;;;3.77;1.17;;;;;;;22.43;34.22;96865.14;1779909;79;21080;-88
2022/05/16 11:52:41;;;;;;;2.30;1.00;;;;;;;22.33;33.07;96857.60;1776101;78;21098;-87
2022/05/16 12:01:02;;;;;;;2.10;1.10;;;;;;;22.58;34.79;96844.67;1780704;78;21051;-87
2022/05/16 12:03:44;;;;;;;2.70;1.37;;;;;;;22.70;34.02;96840.05;1777705;78;21389;-88
2022/05/16 12:06:36;;;;;;;2.42;1.10;;;;;;;22.83;34.03;96839.44;1776812;78;21012;-87
2022/05/16 12:09:24;;;;;;;3.17;1.50;;;;;;;22.85;33.67;96843.96;1791855;78;20940;-87
2022/05/16 12:12:04;;;;;;;2.47;1.12;;;;;;;22.87;32.32;96836.56;1774020;79;21079;-88
2022/05/16 12:14:37;;;;;;;2.27;1.10;;;;;;;22.83;32.01;96835.47;1731612;80;21072;-87
2022/05/16 12:17:18;;;;;;;3.80;0.98;;;;;;;22.88;32.04;96840.81;1783760;78;20997;-87
2022/05/16 12:19:48;;;;;;;3.60;1.15;;;;;;;22.98;31.45;96840.41;1776985;79;21054;-87
2022/05/16 12:22:33;;;;;;;3.05;1.42;;;;;;;22.96;31.12;96833.23;1776225;79;21016;-88
2022/05/16 12:25:32;;;;;;;2.72;1.10;;;;;;;23.03;32.07;96825.08;1747034;80;21014;-88
2022/05/16 12:28:17;;;;;;;3.47;1.10;;;;;;;23.13;32.01;96824.39;1754530;80;21046;-87
2022/05/16 12:30:53;;;;;;;3.10;1.15;;;;;;;23.12;31.76;96819.61;1723483;81;21041;-87
2022/05/16 12:33:44;;;;;;;3.40;1.20;;;;;;;23.11;31.48;96821.19;1768161;80;20964;-87